Time;durP1;ratioP1;P1;durP2;ratioP2;P2;SDS_P1;SDS_P2;PMS_P1;PMS_P2;Temp;Humidity;BMP_temperature;BMP_pressure;BME280_temperature;BME280_humidity;BME280_pressure;Samples;Min_cycle;Max_cycle;Signal;HPM_P1;HPM_P2
2021/09/01 00:02:22;;;;;;;7.03;6.32;;;;;;;11.22;85.48;100206.25;2027921;77;20962;-70
2021/09/01 00:05:25;;;;;;;8.14;6.49;;;;;;;11.15;85.31;100210.56;2031059;79;20206;-69
2021/09/01 00:08:27;;;;;;;7.10;6.40;;;;;;;11.11;85.67;100206.16;2027717;79;20174;-69
2021/09/01 00:11:31;;;;;;;7.91;6.86;;;;;;;11.08;85.70;100209.63;2028087;79;20170;-69
2021/09/01 00:14:34;;;;;;;9.98;6.15;;;;;;;11.05;85.86;100204.41;2028158;79;21098;-69
2021/09/01 00:17:37;;;;;;;6.55;5.93;;;;;;;11.02;85.86;100206.13;2026976;78;20888;-69
2021/09/01 00:20:39;;;;;;;8.06;6.16;;;;;;;11.00;85.89;100208.72;2027159;79;20733;-70
2021/09/01 00:23:42;;;;;;;8.13;6.22;;;;;;;10.97;86.12;100216.50;2027863;79;20289;-69
2021/09/01 00:26:44;;;;;;;9.91;5.81;;;;;;;10.94;86.31;100210.38;2027664;79;20178;-69
2021/09/01 00:29:47;;;;;;;8.57;6.60;;;;;;;10.92;86.01;100201.72;2027352;79;20210;-69
2021/09/01 00:32:50;;;;;;;6.79;5.40;;;;;;;10.87;85.82;100207.75;2031527;77;20792;-69
2021/09/01 00:35:53;;;;;;;6.57;5.97;;;;;;;10.85;86.00;100203.41;2032872;79;20539;-69
2021/09/01 00:38:55;;;;;;;8.49;6.50;;;;;;;10.81;86.24;100206.84;2033310;79;20664;-69
2021/09/01 00:42:01;;;;;;;10.18;6.57;;;;;;;10.79;86.19;100214.63;2033080;79;20740;-70
2021/09/01 00:45:05;;;;;;;8.52;6.99;;;;;;;10.78;86.14;100207.69;2032688;79;20162;-69
2021/09/01 00:48:07;;;;;;;7.34;6.31;;;;;;;10.74;86.19;100210.22;2026769;77;22530;-69
2021/09/01 00:51:10;;;;;;;7.10;6.40;;;;;;;10.72;86.19;100202.44;2028092;79;20331;-69
2021/09/01 00:54:15;;;;;;;7.82;6.51;;;;;;;10.71;86.19;100202.41;2024263;79;20211;-69
2021/09/01 00:57:19;;;;;;;8.96;6.15;;;;;;;10.69;86.10;100210.19;2028412;79;20166;-69
2021/09/01 01:00:43;;;;;;;9.11;6.35;;;;;;;10.66;85.84;100209.31;2025903;77;25250;-69
2021/09/01 01:03:55;;;;;;;7.75;5.88;;;;;;;10.64;85.81;100213.63;2028085;79;20175;-69
2021/09/01 01:07:12;;;;;;;7.38;5.85;;;;;;;10.56;86.12;100213.53;2027354;79;20672;-69
2021/09/01 01:10:14;;;;;;;7.01;5.91;;;;;;;10.51;86.31;100205.72;2027456;79;20178;-69
2021/09/01 01:13:17;;;;;;;7.01;6.06;;;;;;;10.49;86.26;100203.97;2027391;79;20235;-69
2021/09/01 01:16:22;;;;;;;8.30;6.56;;;;;;;10.47;86.17;100213.47;2029020;79;20200;-69
2021/09/01 01:19:24;;;;;;;7.35;6.36;;;;;;;10.44;86.27;100211.72;2028252;77;22221;-69
2021/09/01 01:22:27;;;;;;;6.70;6.05;;;;;;;10.40;86.22;100215.13;2033112;79;20733;-69
2021/09/01 01:25:39;;;;;;;8.68;6.71;;;;;;;10.37;86.04;100216.84;2032363;79;20295;-69
2021/09/01 01:28:48;;;;;;;8.01;6.76;;;;;;;10.33;86.11;100218.53;2032989;79;20169;-69
2021/09/01 01:31:50;;;;;;;7.19;5.82;;;;;;;10.31;86.11;100212.47;2030871;77;20749;-69
2021/09/01 01:34:53;;;;;;;9.38;6.96;;;;;;;10.28;86.34;100218.50;2027811;79;20222;-69
2021/09/01 01:37:58;;;;;;;8.70;6.05;;;;;;;10.25;86.57;100223.66;2027288;79;20994;-69
2021/09/01 01:41:01;;;;;;;7.54;6.36;;;;;;;10.23;86.59;100224.47;2026777;79;21016;-69
2021/09/01 01:44:04;;;;;;;6.91;5.88;;;;;;;10.21;86.30;100221.88;2028021;79;20767;-69
2021/09/01 01:47:07;;;;;;;9.14;6.69;;;;;;;10.18;86.41;100218.34;2029378;76;20195;-69
2021/09/01 01:50:10;;;;;;;10.36;6.78;;;;;;;10.17;86.51;100217.47;2032798;79;20249;-69
2021/09/01 01:53:12;;;;;;;7.00;5.79;;;;;;;10.16;86.59;100218.31;2032662;79;20691;-69
2021/09/01 01:56:15;;;;;;;7.64;6.43;;;;;;;10.12;86.62;100213.97;2032533;79;20618;-69
2021/09/01 01:59:18;;;;;;;8.02;5.99;;;;;;;10.10;86.76;100212.22;2032461;79;20169;-69
2021/09/01 02:02:20;;;;;;;7.59;5.84;;;;;;;10.08;86.71;100204.41;2028367;77;20217;-69
2021/09/01 02:05:23;;;;;;;7.25;6.14;;;;;;;10.08;86.74;100203.53;2028415;80;20216;-69
2021/09/01 02:08:26;;;;;;;7.55;5.99;;;;;;;10.05;86.71;100209.53;2028643;79;20579;-69
2021/09/01 02:11:29;;;;;;;6.15;5.38;;;;;;;10.05;86.62;100208.69;2029049;79;20792;-69
2021/09/01 02:14:31;;;;;;;8.05;6.16;;;;;;;10.03;86.74;100213.84;2029384;79;20220;-69
2021/09/01 02:17:34;;;;;;;8.71;6.06;;;;;;;10.00;86.83;100209.50;2028975;77;22424;-69
2021/09/01 02:20:37;;;;;;;5.95;5.30;;;;;;;9.99;86.78;100217.28;2029619;79;20162;-70
2021/09/01 02:23:39;;;;;;;6.69;5.96;;;;;;;9.96;86.67;100209.47;2030029;79;20203;-69
2021/09/01 02:26:42;;;;;;;7.05;5.80;;;;;;;9.93;86.61;100209.44;2030015;79;20628;-69
2021/09/01 02:29:44;;;;;;;6.81;6.11;;;;;;;9.92;86.72;100215.47;2029347;79;20182;-69
2021/09/01 02:32:47;;;;;;;8.96;5.99;;;;;;;9.88;86.69;100211.13;2033637;76;22045;-70
2021/09/01 02:35:50;;;;;;;12.35;5.86;;;;;;;9.85;86.53;100208.44;2034008;79;20234;-69
2021/09/01 02:38:52;;;;;;;7.04;5.79;;;;;;;9.83;86.31;100215.34;2035166;79;20195;-69
2021/09/01 02:41:55;;;;;;;9.01;5.79;;;;;;;9.79;86.29;100217.03;2033656;79;20174;-69
2021/09/01 02:44:59;;;;;;;7.00;5.68;;;;;;;9.75;86.35;100215.28;2035308;79;20165;-69
2021/09/01 02:48:04;;;;;;;9.29;6.26;;;;;;;9.71;86.56;100221.28;2034915;77;20182;-69
2021/09/01 02:51:07;;;;;;;6.26;5.53;;;;;;;9.69;86.62;100225.56;2035189;79;20182;-69
2021/09/01 02:54:09;;;;;;;9.65;5.94;;;;;;;9.66;86.75;100225.50;2034984;79;20659;-69
2021/09/01 02:57:12;;;;;;;8.61;6.09;;;;;;;9.59;86.74;100232.34;2034499;79;20195;-69
2021/09/01 03:00:14;;;;;;;8.23;5.71;;;;;;;9.59;86.81;100231.50;2033813;79;20206;-69
2021/09/01 03:03:17;;;;;;;7.61;6.34;;;;;;;9.58;86.78;100233.22;2034271;79;22548;-69
2021/09/01 03:06:20;;;;;;;7.22;5.22;;;;;;;9.54;86.83;100235.75;2033262;79;20230;-69
2021/09/01 03:09:22;;;;;;;8.39;5.34;;;;;;;9.50;86.74;100234.81;2033850;79;20195;-69
2021/09/01 03:12:25;;;;;;;7.45;5.79;;;;;;;9.49;86.85;100239.97;2033124;79;20185;-69
2021/09/01 03:15:28;;;;;;;10.21;5.43;;;;;;;9.46;86.80;100239.94;2032709;77;24023;-69
2021/09/01 03:18:30;;;;;;;6.84;5.88;;;;;;;9.40;86.77;100243.34;2032896;79;20188;-69
2021/09/01 03:21:33;;;;;;;6.28;5.22;;;;;;;9.40;86.91;100238.16;2033557;79;20223;-69
2021/09/01 03:24:36;;;;;;;6.60;5.57;;;;;;;9.38;86.90;100239.84;2033489;79;20195;-69
2021/09/01 03:27:38;;;;;;;7.28;5.69;;;;;;;9.37;86.70;100236.38;2032838;79;20220;-70
2021/09/01 03:30:41;;;;;;;9.11;5.49;;;;;;;9.34;86.77;100233.75;2031472;77;21833;-70
2021/09/01 03:33:44;;;;;;;7.31;5.82;;;;;;;9.34;86.73;100240.66;2027783;79;20210;-69
2021/09/01 03:36:46;;;;;;;8.74;5.54;;;;;;;9.31;86.69;100233.69;2028284;79;20226;-69
2021/09/01 03:39:49;;;;;;;8.75;5.39;;;;;;;9.30;86.81;100231.06;2028473;79;20315;-69
2021/09/01 03:42:52;;;;;;;5.81;4.94;;;;;;;9.27;86.90;100228.44;2027779;79;20186;-70
2021/09/01 03:45:55;;;;;;;5.44;4.90;;;;;;;9.25;86.82;100231.03;2028703;79;21131;-69
2021/09/01 03:48:57;;;;;;;8.93;5.60;;;;;;;9.23;86.73;100230.13;2033553;79;20623;-69
2021/09/01 03:52:00;;;;;;;6.11;5.40;;;;;;;9.22;86.67;100230.13;2033283;79;20213;-69
2021/09/01 03:55:07;;;;;;;6.35;5.26;;;;;;;9.20;86.61;100229.22;2032819;79;20223;-69
2021/09/01 03:58:12;;;;;;;5.69;5.10;;;;;;;9.17;86.60;100232.66;2029527;79;20194;-69
2021/09/01 04:01:14;;;;;;;5.26;4.76;;;;;;;9.15;86.55;100234.31;2030237;77;24371;-69
2021/09/01 04:04:17;;;;;;;6.46;5.10;;;;;;;9.14;86.57;100229.13;2027691;79;20214;-69
2021/09/01 04:07:20;;;;;;;8.01;5.71;;;;;;;9.13;86.61;100235.16;2028250;79;20236;-69
2021/09/01 04:10:23;;;;;;;5.68;4.96;;;;;;;9.09;86.58;100231.66;2027372;79;20188;-69
2021/09/01 04:13:25;;;;;;;6.85;5.39;;;;;;;9.06;86.47;100240.25;2028365;79;20174;-69
2021/09/01 04:16:28;;;;;;;8.15;5.66;;;;;;;9.03;86.39;100242.78;2031105;76;21186;-69
2021/09/01 04:19:31;;;;;;;8.09;4.50;;;;;;;9.02;86.46;100250.53;2033241;79;20186;-69
2021/09/01 04:22:34;;;;;;;10.77;5.91;;;;;;;8.98;86.51;100249.63;2033121;79;20173;-69
2021/09/01 04:25:37;;;;;;;8.69;5.66;;;;;;;8.95;86.42;100259.03;2032700;79;20297;-69
2021/09/01 04:28:39;;;;;;;6.90;5.13;;;;;;;8.92;86.52;100259.88;2033967;79;20165;-68
2021/09/01 04:31:42;;;;;;;6.14;5.34;;;;;;;8.89;86.63;100267.59;2028950;79;20174;-69
2021/09/01 04:34:45;;;;;;;5.51;4.90;;;;;;;8.87;86.71;100264.13;2027509;79;20326;-69
2021/09/01 04:37:48;;;;;;;7.24;5.41;;;;;;;8.85;86.61;100265.81;2026815;79;20212;-68
2021/09/01 04:40:50;;;;;;;7.74;5.41;;;;;;;8.81;86.63;100264.03;2027666;79;20395;-69
2021/09/01 04:43:53;;;;;;;5.97;5.19;;;;;;;8.80;86.79;100259.69;2027823;79;20256;-69
2021/09/01 04:46:56;;;;;;;7.72;5.35;;;;;;;8.81;86.82;100265.75;2029863;77;40247;-69
2021/09/01 04:49:59;;;;;;;7.31;5.36;;;;;;;8.75;86.82;100259.59;2033301;79;20193;-79
2021/09/01 04:53:01;;;;;;;6.50;5.55;;;;;;;8.75;86.95;100258.72;2034024;79;20635;-79
2021/09/01 04:56:04;;;;;;;6.41;5.20;;;;;;;8.75;87.01;100261.31;2033070;79;20186;-78
2021/09/01 04:59:07;;;;;;;8.41;5.90;;;;;;;8.75;86.94;100263.91;2033999;79;20194;-79
2021/09/01 05:02:09;;;;;;;8.25;5.55;;;;;;;8.74;86.95;100264.75;2029108;78;20179;-78
2021/09/01 05:05:12;;;;;;;6.88;5.19;;;;;;;8.73;86.96;100263.88;2028176;79;21099;-80
2021/09/01 05:08:15;;;;;;;9.16;6.44;;;;;;;8.75;86.88;100264.78;2028195;79;20371;-78
2021/09/01 05:11:17;;;;;;;6.89;5.29;;;;;;;8.74;86.93;100264.75;2027776;79;20170;-78
2021/09/01 05:14:20;;;;;;;6.54;5.14;;;;;;;8.76;86.84;100273.41;2028300;79;20174;-79
2021/09/01 05:17:23;;;;;;;7.56;5.36;;;;;;;8.78;86.74;100274.31;2031494;77;21517;-79
2021/09/01 05:20:26;;;;;;;6.69;5.64;;;;;;;8.80;86.95;100272.63;2033058;79;20217;-79
2021/09/01 05:23:34;;;;;;;6.84;5.44;;;;;;;8.86;87.10;100271.88;2033822;79;20521;-78
2021/09/01 05:26:37;;;;;;;6.84;5.38;;;;;;;8.87;87.13;100282.25;2034040;79;20165;-79
2021/09/01 05:29:45;;;;;;;6.59;5.13;;;;;;;8.92;87.27;100285.78;2033746;79;20863;-78
2021/09/01 05:32:51;;;;;;;6.99;5.60;;;;;;;8.98;87.35;100285.91;2027286;77;21692;-77
2021/09/01 05:35:54;;;;;;;7.11;5.53;;;;;;;9.02;87.22;100285.09;2027858;79;20203;-78
2021/09/01 05:38:57;;;;;;;6.41;5.39;;;;;;;9.09;87.51;100273.09;2027474;79;20166;-78
2021/09/01 05:42:01;;;;;;;7.71;5.32;;;;;;;9.18;87.77;100277.56;2027654;79;20213;-78
2021/09/01 05:45:06;;;;;;;7.15;5.49;;;;;;;9.29;87.82;100278.56;2027753;79;20714;-78
2021/09/01 05:48:08;;;;;;;7.89;5.54;;;;;;;9.40;87.60;100279.63;2032817;77;34849;-77
2021/09/01 05:51:13;;;;;;;11.25;6.75;;;;;;;9.51;87.47;100282.34;2033389;79;20218;-76
2021/09/01 05:54:16;;;;;;;5.72;5.22;;;;;;;9.60;87.28;100273.00;2032400;79;20177;-76
2021/09/01 05:57:21;;;;;;;8.38;5.93;;;;;;;9.74;87.17;100280.09;2033254;79;20618;-76
2021/09/01 06:00:24;;;;;;;7.64;5.85;;;;;;;9.89;86.85;100277.69;2031816;77;20237;-79
2021/09/01 06:03:34;;;;;;;6.31;5.63;;;;;;;10.10;86.36;100279.69;2028619;80;20209;-77
2021/09/01 06:06:38;;;;;;;8.14;5.93;;;;;;;10.40;85.73;100282.63;2028911;80;20219;-79
2021/09/01 06:09:43;;;;;;;6.60;5.84;;;;;;;10.73;85.00;100282.09;2028970;80;20224;-77
2021/09/01 06:12:48;;;;;;;15.63;7.36;;;;;;;11.06;83.98;100280.66;2029300;80;20276;-80
2021/09/01 06:15:51;;;;;;;19.42;8.07;;;;;;;11.39;83.21;100280.03;2031469;77;22706;-75
2021/09/01 06:18:53;;;;;;;276.00;78.03;;;;;;;11.79;82.02;100274.22;2032883;79;20419;-79
2021/09/01 06:21:58;;;;;;;38.11;15.38;;;;;;;12.22;81.11;100276.13;2033074;79;20169;-78
2021/09/01 06:25:02;;;;;;;16.45;9.60;;;;;;;12.62;80.04;100277.09;2034394;79;20660;-78
2021/09/01 06:28:05;;;;;;;27.52;12.35;;;;;;;13.00;78.58;100275.38;2033245;79;20177;-78
2021/09/01 06:31:08;;;;;;;21.88;10.26;;;;;;;13.45;76.99;100285.78;2030503;77;20182;-76
2021/09/01 06:34:11;;;;;;;13.89;7.30;;;;;;;13.83;75.69;100283.13;2026647;80;20223;-78
2021/09/01 06:37:14;;;;;;;8.49;7.07;;;;;;;14.20;74.31;100287.31;2028145;80;20195;-79
2021/09/01 06:40:18;;;;;;;9.74;7.49;;;;;;;14.37;73.01;100291.59;2026963;80;20174;-79
2021/09/01 06:43:21;;;;;;;9.19;6.68;;;;;;;14.57;72.84;100281.03;2027347;80;20252;-76
2021/09/01 06:46:23;;;;;;;6.89;6.10;;;;;;;14.70;72.10;100285.28;2029252;77;21016;-79
2021/09/01 06:49:26;;;;;;;8.00;6.81;;;;;;;14.85;71.85;100290.41;2032464;79;20271;-77
2021/09/01 06:52:28;;;;;;;11.19;7.47;;;;;;;15.03;71.47;100285.03;2032499;79;20296;-80
2021/09/01 06:55:31;;;;;;;8.74;7.04;;;;;;;15.20;71.28;100284.03;2027717;79;20193;-78
2021/09/01 06:58:35;;;;;;;8.38;6.82;;;;;;;15.24;71.16;100294.44;2032509;79;20191;-78
2021/09/01 07:01:37;;;;;;;8.20;7.10;;;;;;;15.37;71.53;100301.31;2028647;77;20175;-78
2021/09/01 07:04:40;;;;;;;8.19;7.11;;;;;;;15.58;71.19;100295.00;2027377;79;20204;-78
2021/09/01 07:07:44;;;;;;;7.81;7.06;;;;;;;15.74;70.95;100294.88;2027454;79;20155;-79
2021/09/01 07:10:47;;;;;;;10.56;7.99;;;;;;;15.97;70.83;100292.84;2028430;79;20698;-78
2021/09/01 07:13:49;;;;;;;8.39;6.95;;;;;;;16.18;70.42;100291.75;2026671;79;20162;-78
2021/09/01 07:16:52;;;;;;;10.02;7.45;;;;;;;16.39;70.12;100285.34;2028620;77;22946;-80
2021/09/01 07:19:54;;;;;;;12.73;8.59;;;;;;;16.55;69.81;100292.13;2030660;79;20158;-78
2021/09/01 07:23:04;;;;;;;11.07;7.86;;;;;;;16.76;69.02;100298.81;2030871;79;20910;-78
2021/09/01 07:26:10;;;;;;;13.13;7.31;;;;;;;16.97;68.56;100295.88;2030993;79;20213;-78
2021/09/01 07:29:13;;;;;;;10.76;7.61;;;;;;;17.27;68.36;100301.50;2030720;79;20212;-79
2021/09/01 07:32:15;;;;;;;9.75;7.19;;;;;;;17.51;67.47;100299.31;2026089;77;22239;-78
2021/09/01 07:35:19;;;;;;;7.88;6.70;;;;;;;17.82;66.97;100304.03;2025192;79;20299;-79
2021/09/01 07:38:22;;;;;;;7.60;6.68;;;;;;;18.13;66.44;100306.91;2025107;79;20319;-78
2021/09/01 07:41:25;;;;;;;11.86;5.96;;;;;;;18.39;66.46;100304.59;2026032;79;20166;-79
2021/09/01 07:44:29;;;;;;;9.34;5.88;;;;;;;18.69;65.92;100299.59;2026940;79;20173;-79
2021/09/01 07:47:31;;;;;;;7.70;5.79;;;;;;;18.99;65.75;100305.88;2030056;77;20622;-82
2021/09/01 07:50:34;;;;;;;7.74;5.55;;;;;;;19.28;64.53;100305.19;2039439;79;20173;-81
2021/09/01 07:53:37;;;;;;;5.65;4.99;;;;;;;19.51;63.66;100307.22;2040339;79;20182;-81
2021/09/01 07:56:39;;;;;;;7.44;5.29;;;;;;;19.74;63.61;100309.25;2040504;79;20165;-82
2021/09/01 07:59:42;;;;;;;6.51;4.86;;;;;;;19.89;62.65;100312.34;2040993;79;20215;-82
2021/09/01 08:02:45;;;;;;;10.85;5.40;;;;;;;20.06;62.07;100318.91;2038751;77;24413;-83
2021/09/01 08:05:47;;;;;;;10.85;5.78;;;;;;;20.23;61.81;100325.44;2038274;79;20183;-82
2021/09/01 08:08:51;;;;;;;9.84;5.54;;;;;;;20.42;61.59;100320.50;2039642;79;20218;-82
2021/09/01 08:11:53;;;;;;;12.13;5.00;;;;;;;20.57;60.88;100319.19;2037824;79;20245;-84
2021/09/01 08:14:56;;;;;;;6.71;5.39;;;;;;;20.79;60.53;100322.88;2038579;79;20204;-83
2021/09/01 08:17:59;;;;;;;8.38;5.57;;;;;;;20.97;60.18;100325.84;2039664;77;20200;-83
2021/09/01 08:21:02;;;;;;;9.14;4.95;;;;;;;21.09;59.33;100318.41;2040165;79;20248;-84
2021/09/01 08:24:05;;;;;;;6.94;4.25;;;;;;;21.21;59.02;100332.16;2038790;79;20289;-85
2021/09/01 08:27:09;;;;;;;5.65;4.07;;;;;;;21.37;58.72;100328.97;2039802;79;20190;-84
2021/09/01 08:30:12;;;;;;;9.10;4.56;;;;;;;21.43;58.22;100330.53;2038200;79;20241;-84
2021/09/01 08:33:14;;;;;;;7.36;4.47;;;;;;;21.58;58.01;100330.03;2041790;77;20583;-82
2021/09/01 08:36:17;;;;;;;9.73;4.38;;;;;;;21.68;57.61;100334.06;2041244;79;20247;-83
2021/09/01 08:39:20;;;;;;;8.09;4.03;;;;;;;21.78;57.29;100333.75;2038997;79;20215;-82
2021/09/01 08:42:23;;;;;;;5.18;4.07;;;;;;;21.91;57.08;100335.91;2040322;79;20199;-81
2021/09/01 08:45:25;;;;;;;6.51;3.67;;;;;;;22.06;56.21;100338.94;2041497;79;20223;-83
2021/09/01 08:48:31;;;;;;;4.88;3.35;;;;;;;22.25;56.32;100337.31;2038967;79;20209;-84
2021/09/01 08:51:34;;;;;;;5.40;3.14;;;;;;;22.35;55.77;100327.28;2046342;79;20262;-80
2021/09/01 08:54:36;;;;;;;4.89;2.76;;;;;;;22.58;55.62;100322.81;2039813;79;20190;-79
2021/09/01 08:57:40;;;;;;;4.04;2.79;;;;;;;22.76;55.10;100318.59;2039848;79;20178;-82
2021/09/01 09:00:43;;;;;;;6.09;3.20;;;;;;;22.87;55.01;100319.06;2042093;77;20200;-84
2021/09/01 09:03:54;;;;;;;5.70;2.70;;;;;;;22.97;53.95;100321.31;2039239;79;20178;-82
2021/09/01 09:06:59;;;;;;;6.61;3.06;;;;;;;22.99;53.82;100322.16;2033998;79;20166;-80
2021/09/01 09:10:02;;;;;;;3.96;2.54;;;;;;;23.07;53.33;100320.91;2038075;79;20172;-80
2021/09/01 09:13:06;;;;;;;5.21;2.96;;;;;;;23.12;53.16;100316.28;2038413;79;20292;-82
2021/09/01 09:16:09;;;;;;;8.31;3.31;;;;;;;23.23;52.93;100314.97;2039866;79;20142;-83
2021/09/01 09:19:14;;;;;;;7.13;2.64;;;;;;;23.25;52.42;100308.69;2033681;79;20245;-78
2021/09/01 09:25:42;;;;;;;6.28;2.31;;;;;;;23.57;51.92;100299.41;2047887;70;20215;-81
2021/09/01 09:28:45;;;;;;;3.66;2.95;;;;;;;23.75;52.22;100295.94;2052252;79;20195;-82
2021/09/01 09:35:19;;;;;;;4.90;2.67;;;;;;;23.97;51.11;100293.19;2063089;69;20206;-82
2021/09/01 09:41:54;;;;;;;5.56;2.68;;;;;;;24.13;50.59;100289.84;2057458;69;20233;-83
2021/09/01 09:44:57;;;;;;;5.14;2.50;;;;;;;24.22;49.96;100294.72;2050638;79;20173;-82
2021/09/01 09:48:00;;;;;;;5.90;2.90;;;;;;;24.13;49.90;100295.16;2036729;79;1003224;-82
2021/09/01 09:51:05;;;;;;;2.85;2.05;;;;;;;24.21;50.45;100293.00;2050873;79;20206;-81
2021/09/01 09:57:49;;;;;;;5.45;2.45;;;;;;;24.63;48.97;100288.38;2054627;69;20248;-80
2021/09/01 10:00:51;;;;;;;4.36;2.21;;;;;;;24.78;48.43;100289.44;2043910;79;20253;-82
2021/09/01 10:03:56;;;;;;;5.25;2.25;;;;;;;24.96;48.07;100290.34;2045459;79;20198;-84
2021/09/01 10:06:59;;;;;;;2.97;2.26;;;;;;;25.17;47.70;100291.97;2049722;79;20166;-84
2021/09/01 10:10:02;;;;;;;2.84;2.42;;;;;;;25.42;47.53;100288.03;2053166;79;20189;-83
2021/09/01 10:13:10;;;;;;;3.95;2.24;;;;;;;25.41;46.73;100284.53;2051194;79;20133;-83
2021/09/01 10:19:43;;;;;;;5.21;2.29;;;;;;;24.71;46.81;100277.38;2049313;69;20270;-82
2021/09/01 10:26:27;;;;;;;6.11;2.60;;;;;;;23.37;48.55;100273.72;2046839;69;20189;-81
2021/09/01 10:29:38;;;;;;;3.22;2.25;;;;;;;22.84;50.24;100275.97;2040750;79;20165;-81
2021/09/01 10:32:51;;;;;;;3.22;2.36;;;;;;;22.89;51.51;100274.84;2038298;77;224688;-81
2021/09/01 10:35:53;;;;;;;2.70;2.00;;;;;;;23.33;50.62;100256.19;2050975;79;20278;-82
2021/09/01 10:45:57;;;;;;;3.65;2.09;;;;;;;24.42;47.93;100268.16;2050619;69;91901;-83
2021/09/01 10:49:00;;;;;;;4.38;2.33;;;;;;;24.75;46.75;100270.09;2031130;80;20217;-84
2021/09/01 10:52:04;;;;;;;4.71;1.90;;;;;;;25.01;46.57;100269.72;2028384;80;20202;-84
2021/09/01 10:55:07;;;;;;;3.11;1.88;;;;;;;25.13;45.09;100270.91;2036125;80;20159;-85
2021/09/01 10:58:19;;;;;;;2.76;1.83;;;;;;;25.23;45.36;100264.19;2034812;80;20445;-83
2021/09/01 11:01:22;;;;;;;2.13;1.92;;;;;;;25.45;44.87;100264.81;2035456;80;20300;-82
2021/09/01 11:04:26;;;;;;;3.85;1.91;;;;;;;25.52;44.70;100263.56;2036048;80;20151;-83
2021/09/01 11:07:31;;;;;;;5.49;2.01;;;;;;;25.64;45.16;100267.38;2034455;80;20196;-84
2021/09/01 11:10:34;;;;;;;3.88;2.05;;;;;;;25.70;44.45;100282.19;2033755;80;20244;-86
2021/09/01 11:13:43;;;;;;;3.70;2.17;;;;;;;25.20;43.99;100275.00;2036340;80;20205;-84
2021/09/01 11:16:50;;;;;;;4.03;1.91;;;;;;;24.68;44.31;100272.22;2033083;80;20171;-83
2021/09/01 11:19:58;;;;;;;2.70;2.08;;;;;;;24.11;44.65;100271.34;2038527;80;20155;-83
2021/09/01 11:23:02;;;;;;;5.29;2.00;;;;;;;23.68;45.77;100270.59;2034276;80;20175;-84
2021/09/01 11:26:05;;;;;;;4.00;2.15;;;;;;;23.67;46.56;100276.84;2039788;80;20165;-82
2021/09/01 11:29:09;;;;;;;4.45;2.28;;;;;;;23.50;46.94;100276.69;2032325;80;20264;-81
2021/09/01 11:32:18;;;;;;;8.68;2.65;;;;;;;23.22;47.68;100269.06;2026851;77;26827;-80
2021/09/01 11:35:21;;;;;;;2.13;1.92;;;;;;;23.24;48.49;100263.69;2031290;80;20160;-85
2021/09/01 11:38:23;;;;;;;5.40;2.03;;;;;;;23.63;48.03;100262.00;2034517;80;20171;-82
2021/09/01 11:41:27;;;;;;;3.11;2.30;;;;;;;24.17;47.07;100256.91;2026183;80;20162;-79
2021/09/01 11:44:30;;;;;;;2.94;1.96;;;;;;;24.63;46.38;100261.81;2023858;80;20810;-80
2021/09/01 11:47:39;;;;;;;4.46;1.60;;;;;;;25.06;45.58;100259.72;2022188;77;20876;-80
2021/09/01 11:50:46;;;;;;;2.42;2.04;;;;;;;25.29;43.16;100262.06;2026355;80;20200;-81
2021/09/01 11:54:10;;;;;;;2.25;1.69;;;;;;;25.52;43.12;100260.91;2024107;80;20822;-80
2021/09/01 11:57:28;;;;;;;2.66;2.21;;;;;;;25.68;43.66;100257.47;2022718;80;20163;-80
2021/09/01 12:00:38;;;;;;;5.71;2.27;;;;;;;25.47;43.52;100265.56;2020992;77;21069;-78
2021/09/01 12:03:41;;;;;;;2.99;2.04;;;;;;;24.97;43.90;100265.47;2022914;80;20195;-80
2021/09/01 12:07:04;;;;;;;2.38;1.90;;;;;;;24.90;45.11;100261.38;2023865;80;20282;-79
2021/09/01 12:10:09;;;;;;;2.09;1.89;;;;;;;24.86;44.30;100250.06;2022722;80;20239;-79
2021/09/01 12:13:12;;;;;;;3.95;1.91;;;;;;;24.70;43.46;100249.94;2024849;80;20248;-81
2021/09/01 12:16:25;;;;;;;2.65;1.99;;;;;;;24.83;43.48;100252.00;2024551;77;26491;-81
2021/09/01 12:19:27;;;;;;;7.22;1.91;;;;;;;25.16;43.91;100246.84;2019237;80;20299;-81
2021/09/01 12:22:41;;;;;;;3.14;2.00;;;;;;;25.33;43.02;100265.47;2021298;80;20199;-81
2021/09/01 12:25:44;;;;;;;2.15;1.55;;;;;;;25.44;42.20;100254.25;2023753;80;20681;-81
2021/09/01 12:28:48;;;;;;;2.97;2.11;;;;;;;25.64;42.38;100247.88;2020501;80;20642;-79
2021/09/01 12:31:52;;;;;;;3.44;2.04;;;;;;;25.61;41.97;100248.91;2020529;77;20195;-79
2021/09/01 12:34:57;;;;;;;4.32;2.38;;;;;;;25.18;42.32;100258.25;2019477;80;20207;-81
2021/09/01 12:38:03;;;;;;;4.36;2.15;;;;;;;24.89;43.22;100251.69;2022499;80;20199;-80
2021/09/01 12:41:22;;;;;;;2.92;2.08;;;;;;;24.85;43.45;100251.00;2022901;80;20179;-79
2021/09/01 12:44:25;;;;;;;3.76;1.40;;;;;;;24.94;42.17;100247.00;2022969;80;21182;-79
2021/09/01 12:47:28;;;;;;;2.89;1.81;;;;;;;25.12;42.56;100239.94;2019923;77;24104;-79
2021/09/01 12:50:37;;;;;;;3.88;1.92;;;;;;;25.03;41.99;100240.41;2017614;80;20370;-79
2021/09/01 12:53:39;;;;;;;3.35;1.70;;;;;;;24.91;42.63;100234.75;2018564;80;20217;-79
2021/09/01 12:56:42;;;;;;;2.08;1.65;;;;;;;24.65;42.44;100230.72;2017834;80;20252;-79
2021/09/01 12:59:45;;;;;;;2.50;1.60;;;;;;;24.46;41.94;100242.31;2016391;80;20197;-76
2021/09/01 13:02:50;;;;;;;1.95;1.29;;;;;;;24.20;40.04;100230.22;2021211;77;21191;-79
2021/09/01 13:05:53;;;;;;;3.19;1.54;;;;;;;24.19;41.12;100228.50;2022439;80;20775;-78
2021/09/01 13:08:56;;;;;;;1.74;1.48;;;;;;;24.25;41.50;100222.94;2022333;80;20668;-79
2021/09/01 13:11:59;;;;;;;2.25;1.49;;;;;;;24.44;41.75;100212.31;2021714;80;20265;-77
2021/09/01 13:15:02;;;;;;;3.71;1.95;;;;;;;24.66;41.66;100219.16;2020789;80;20784;-78
2021/09/01 13:18:06;;;;;;;1.96;1.60;;;;;;;24.85;41.63;100215.59;2016668;77;21727;-78
2021/09/01 13:21:09;;;;;;;2.91;1.76;;;;;;;24.98;41.86;100227.34;2016584;80;20205;-77
2021/09/01 13:24:11;;;;;;;2.24;1.65;;;;;;;24.90;39.97;100225.03;2016335;80;20213;-77
2021/09/01 13:27:14;;;;;;;3.51;1.42;;;;;;;24.66;40.71;100221.81;2015843;80;20681;-77
2021/09/01 13:30:17;;;;;;;3.28;1.74;;;;;;;24.39;40.92;100213.38;2015594;80;20758;-76
2021/09/01 13:33:20;;;;;;;2.63;1.59;;;;;;;24.29;40.50;100208.63;2014680;80;20249;-77
2021/09/01 13:36:22;;;;;;;4.05;1.80;;;;;;;24.43;41.70;100207.94;2015289;80;20172;-76
2021/09/01 13:39:25;;;;;;;2.45;1.40;;;;;;;24.64;41.81;100207.75;2018736;80;20179;-77
2021/09/01 13:42:28;;;;;;;4.29;1.65;;;;;;;24.87;41.67;100201.28;2013607;80;20416;-77
2021/09/01 13:45:30;;;;;;;3.71;1.56;;;;;;;25.07;41.42;100200.31;2016783;77;22539;-78
2021/09/01 13:48:33;;;;;;;2.83;1.86;;;;;;;25.36;41.52;100206.78;2029690;79;20167;-82
2021/09/01 13:51:36;;;;;;;1.89;1.50;;;;;;;25.68;41.12;100196.28;2035429;79;20235;-80
2021/09/01 13:54:39;;;;;;;2.09;1.90;;;;;;;25.78;40.51;100190.38;2033449;79;20243;-80
2021/09/01 13:57:43;;;;;;;1.70;1.60;;;;;;;25.66;40.24;100196.31;2029973;79;20259;-80
2021/09/01 14:00:49;;;;;;;2.75;1.79;;;;;;;25.36;40.41;100192.66;2025355;77;20191;-79
2021/09/01 14:03:54;;;;;;;4.09;1.80;;;;;;;25.27;40.81;100189.50;2026050;80;20183;-78
2021/09/01 14:06:57;;;;;;;2.42;1.91;;;;;;;25.38;41.35;100186.28;2025762;80;20200;-80
2021/09/01 14:09:59;;;;;;;2.94;1.90;;;;;;;25.54;41.56;100187.22;2030820;80;20195;-77
2021/09/01 14:13:02;;;;;;;2.78;1.51;;;;;;;25.56;41.10;100180.00;2028088;80;20186;-78
2021/09/01 14:16:06;;;;;;;3.55;2.22;;;;;;;25.34;40.88;100171.44;2028104;77;20166;-79
2021/09/01 14:19:12;;;;;;;4.14;1.70;;;;;;;25.14;41.54;100172.50;2026944;80;20171;-78
2021/09/01 14:22:15;;;;;;;4.03;1.74;;;;;;;25.10;42.16;100178.88;2027417;80;20162;-80
2021/09/01 14:25:17;;;;;;;3.34;1.90;;;;;;;24.90;42.04;100187.84;2026824;80;20206;-80
2021/09/01 14:28:20;;;;;;;3.76;1.95;;;;;;;24.73;42.33;100185.19;2027857;80;20158;-78
2021/09/01 14:31:23;;;;;;;2.61;1.79;;;;;;;24.71;42.80;100166.66;2027135;77;21762;-81
2021/09/01 14:34:25;;;;;;;1.98;1.73;;;;;;;24.85;43.20;100171.28;2028953;80;20748;-80
2021/09/01 14:37:28;;;;;;;2.05;1.59;;;;;;;25.03;42.71;100171.31;2030013;80;20223;-81
2021/09/01 14:40:31;;;;;;;3.11;2.05;;;;;;;25.00;41.41;100167.03;2027697;80;20924;-80
2021/09/01 14:43:34;;;;;;;2.44;1.49;;;;;;;25.04;41.73;100168.59;2028202;79;20642;-80
2021/09/01 14:46:36;;;;;;;2.10;1.79;;;;;;;25.05;41.72;100161.47;2025889;77;20496;-80